Time;durP1;ratioP1;P1;durP2;ratioP2;P2;SDS_P1;SDS_P2;PMS_P1;PMS_P2;Temp;Humidity;BMP_temperature;BMP_pressure;BME280_temperature;BME280_humidity;BME280_pressure;Samples;Min_cycle;Max_cycle;Signal;HPM_P1;HPM_P2
2021/05/23 00:00:26;;;;;;;;;;;23.00;40.90;;;;;;1638033;71;1127;-70
2021/05/23 00:02:26;;;;;;;;;;;23.00;40.80;;;;;;1630961;71;1901;-70
2021/05/23 00:04:27;;;;;;;;;;;23.00;40.70;;;;;;1634501;71;727;-69
2021/05/23 00:06:29;;;;;;;;;;;23.00;40.70;;;;;;1641556;71;713;-70
2021/05/23 00:08:31;;;;;;;;;;;23.00;40.70;;;;;;1632511;71;745;-71
2021/05/23 00:10:40;;;;;;;;;;;22.90;40.80;;;;;;1627580;71;1139;-70
2021/05/23 00:12:42;;;;;;;;;;;22.90;40.70;;;;;;1636315;71;662;-71
2021/05/23 00:14:44;;;;;;;;;;;23.00;40.80;;;;;;1634095;71;715;-71
2021/05/23 00:16:46;;;;;;;;;;;22.90;40.70;;;;;;1633480;71;687;-71
2021/05/23 00:18:48;;;;;;;;;;;22.90;40.80;;;;;;1628624;71;702;-71
2021/05/23 00:20:50;;;;;;;;;;;23.00;40.90;;;;;;1631728;71;1940;-71
2021/05/23 00:22:53;;;;;;;;;;;23.00;41.00;;;;;;1635160;71;788;-71
2021/05/23 00:24:54;;;;;;;;;;;22.90;41.00;;;;;;1636624;71;766;-71
2021/05/23 00:26:56;;;;;;;;;;;23.00;41.00;;;;;;1638145;71;726;-70
2021/05/23 00:28:58;;;;;;;;;;;23.00;41.00;;;;;;1636192;71;804;-72
2021/05/23 00:31:00;;;;;;;;;;;23.00;40.80;;;;;;1634565;71;1165;-72
2021/05/23 00:33:02;;;;;;;;;;;23.00;41.00;;;;;;1636167;71;786;-72
2021/05/23 00:35:04;;;;;;;;;;;22.90;40.90;;;;;;1631330;71;734;-72
2021/05/23 00:37:06;;;;;;;;;;;23.00;40.80;;;;;;1636795;71;733;-70
2021/05/23 00:39:08;;;;;;;;;;;23.00;40.80;;;;;;1630293;71;1153;-70
2021/05/23 00:41:10;;;;;;;;;;;22.90;40.80;;;;;;1624713;71;1931;-69
2021/05/23 00:43:13;;;;;;;;;;;23.00;40.80;;;;;;1634587;71;754;-68
2021/05/23 00:45:15;;;;;;;;;;;22.90;40.70;;;;;;1620754;71;664;-70
2021/05/23 00:47:17;;;;;;;;;;;23.00;40.90;;;;;;1621671;71;806;-70
2021/05/23 00:49:19;;;;;;;;;;;22.90;40.90;;;;;;1631862;71;1196;-71
2021/05/23 00:51:21;;;;;;;;;;;23.00;41.00;;;;;;1630133;71;716;-71
2021/05/23 00:53:23;;;;;;;;;;;22.90;40.90;;;;;;1644070;71;705;-69
2021/05/23 00:55:25;;;;;;;;;;;23.00;40.80;;;;;;1628535;71;790;-69
2021/05/23 00:57:27;;;;;;;;;;;22.90;40.90;;;;;;1633028;71;781;-69
2021/05/23 00:59:29;;;;;;;;;;;22.90;41.00;;;;;;1636602;71;1145;-70
2021/05/23 01:01:33;;;;;;;;;;;22.90;41.00;;;;;;1634588;71;1933;-70
2021/05/23 01:03:36;;;;;;;;;;;22.90;41.10;;;;;;1625692;71;1055;-70
2021/05/23 01:05:38;;;;;;;;;;;22.90;40.90;;;;;;1644953;71;692;-70
2021/05/23 01:07:41;;;;;;;;;;;22.90;41.00;;;;;;1640677;71;789;-72
2021/05/23 01:09:43;;;;;;;;;;;22.90;41.00;;;;;;1630577;71;1144;-71
2021/05/23 01:11:48;;;;;;;;;;;22.90;41.00;;;;;;1648988;71;794;-71
2021/05/23 01:14:00;;;;;;;;;;;22.90;41.00;;;;;;1627428;71;671;-71
2021/05/23 01:16:03;;;;;;;;;;;22.90;40.80;;;;;;1646439;71;683;-72
2021/05/23 01:18:07;;;;;;;;;;;22.90;40.80;;;;;;1622362;71;726;-70
2021/05/23 01:20:10;;;;;;;;;;;22.90;40.70;;;;;;1631593;71;1085;-72
2021/05/23 01:22:14;;;;;;;;;;;22.90;40.70;;;;;;1645929;71;1931;-71
2021/05/23 01:24:29;;;;;;;;;;;22.90;40.70;;;;;;1634672;71;767;-69
2021/05/23 01:26:35;;;;;;;;;;;22.90;40.60;;;;;;1636664;71;1919;-71
2021/05/23 01:28:41;;;;;;;;;;;22.90;40.50;;;;;;1640085;71;684;-71
2021/05/23 01:30:44;;;;;;;;;;;22.90;40.60;;;;;;1628831;71;1182;-69
2021/05/23 01:32:47;;;;;;;;;;;22.90;40.90;;;;;;1637251;71;804;-71
2021/05/23 01:34:48;;;;;;;;;;;22.90;40.90;;;;;;1628549;71;669;-70
2021/05/23 01:36:51;;;;;;;;;;;22.90;40.70;;;;;;1628428;71;692;-70
2021/05/23 01:38:53;;;;;;;;;;;22.80;40.80;;;;;;1625448;71;715;-71
2021/05/23 01:40:59;;;;;;;;;;;22.80;41.00;;;;;;1640500;71;1080;-70
2021/05/23 01:43:01;;;;;;;;;;;22.90;41.20;;;;;;1642046;71;1907;-69
2021/05/23 01:45:03;;;;;;;;;;;22.90;41.30;;;;;;1616073;71;716;-70
2021/05/23 01:47:05;;;;;;;;;;;22.90;41.30;;;;;;1636919;71;716;-70
2021/05/23 01:49:08;;;;;;;;;;;22.90;41.30;;;;;;1641729;71;1172;-70
2021/05/23 01:51:10;;;;;;;;;;;22.90;41.20;;;;;;1644929;71;705;-72
2021/05/23 01:53:12;;;;;;;;;;;22.90;41.20;;;;;;1645606;71;788;-70
2021/05/23 01:55:14;;;;;;;;;;;22.90;41.30;;;;;;1628060;71;826;-71
2021/05/23 01:57:16;;;;;;;;;;;22.80;41.00;;;;;;1626499;71;771;-69
2021/05/23 01:59:18;;;;;;;;;;;22.90;41.20;;;;;;1635501;71;1080;-71
2021/05/23 02:01:20;;;;;;;;;;;22.80;41.00;;;;;;1635220;71;1923;-72
2021/05/23 02:03:22;;;;;;;;;;;22.80;41.00;;;;;;1621791;71;727;-70
2021/05/23 02:05:24;;;;;;;;;;;22.80;41.10;;;;;;1635894;71;751;-70
2021/05/23 02:07:26;;;;;;;;;;;22.80;41.10;;;;;;1633554;71;733;-71
2021/05/23 02:09:28;;;;;;;;;;;22.80;41.00;;;;;;1635854;71;1115;-72
2021/05/23 02:11:30;;;;;;;;;;;22.80;41.10;;;;;;1619598;71;783;-72
2021/05/23 02:13:32;;;;;;;;;;;22.80;41.10;;;;;;1638634;71;726;-73
2021/05/23 02:15:34;;;;;;;;;;;22.90;41.10;;;;;;1628132;71;847;-70
2021/05/23 02:17:36;;;;;;;;;;;22.90;41.20;;;;;;1631765;71;715;-71
2021/05/23 02:19:38;;;;;;;;;;;22.80;40.80;;;;;;1635074;71;1156;-71
2021/05/23 02:21:40;;;;;;;;;;;22.90;41.00;;;;;;1636192;71;1933;-72
2021/05/23 02:23:48;;;;;;;;;;;22.90;41.00;;;;;;1647564;71;735;-70
2021/05/23 02:25:51;;;;;;;;;;;22.90;41.00;;;;;;1640128;71;770;-70
2021/05/23 02:27:54;;;;;;;;;;;22.90;41.00;;;;;;1639804;71;647;-71
2021/05/23 02:29:55;;;;;;;;;;;22.90;40.90;;;;;;1636059;70;217045;-60
2021/05/23 02:31:57;;;;;;;;;;;22.80;40.70;;;;;;1606644;73;776;-58
2021/05/23 02:33:59;;;;;;;;;;;22.80;40.70;;;;;;1588684;73;746;-60
2021/05/23 02:36:01;;;;;;;;;;;22.90;40.70;;;;;;1608684;72;785;-59
2021/05/23 02:38:03;;;;;;;;;;;22.90;40.70;;;;;;1609298;73;721;-60
2021/05/23 02:40:07;;;;;;;;;;;22.90;40.70;;;;;;1596220;73;1203;-59
2021/05/23 02:42:09;;;;;;;;;;;22.90;40.70;;;;;;1582050;74;1930;-59
2021/05/23 02:44:10;;;;;;;;;;;22.80;40.60;;;;;;1575271;75;724;-59
2021/05/23 02:46:12;;;;;;;;;;;22.80;40.40;;;;;;1580120;74;775;-59
2021/05/23 02:48:14;;;;;;;;;;;22.80;40.10;;;;;;1580913;74;823;-59
2021/05/23 02:50:17;;;;;;;;;;;22.90;40.30;;;;;;1571223;74;1213;-59
2021/05/23 02:52:19;;;;;;;;;;;22.90;40.30;;;;;;1579335;74;747;-59
2021/05/23 02:54:21;;;;;;;;;;;22.80;40.20;;;;;;1575115;74;782;-57
2021/05/23 02:56:23;;;;;;;;;;;22.80;40.30;;;;;;1579785;75;700;-58
2021/05/23 02:58:25;;;;;;;;;;;22.90;40.30;;;;;;1571433;74;761;-58
2021/05/23 03:00:27;;;;;;;;;;;22.90;40.20;;;;;;1580560;74;1126;-59
2021/05/23 03:02:29;;;;;;;;;;;22.90;40.10;;;;;;1573514;74;1924;-58
2021/05/23 03:04:31;;;;;;;;;;;22.90;40.20;;;;;;1575357;74;808;-59
2021/05/23 03:06:33;;;;;;;;;;;22.90;40.00;;;;;;1570098;74;772;-60
2021/05/23 03:08:34;;;;;;;;;;;22.80;39.90;;;;;;1571731;75;798;-59
2021/05/23 03:10:37;;;;;;;;;;;22.90;39.70;;;;;;1582970;73;1134;-59
2021/05/23 03:12:39;;;;;;;;;;;22.90;39.90;;;;;;1578250;74;702;-59
2021/05/23 03:14:41;;;;;;;;;;;22.90;39.90;;;;;;1580548;74;834;-58
2021/05/23 03:16:43;;;;;;;;;;;22.90;39.90;;;;;;1580250;74;796;-58
2021/05/23 03:18:45;;;;;;;;;;;22.90;39.90;;;;;;1579494;74;781;-60
2021/05/23 03:20:47;;;;;;;;;;;22.90;40.10;;;;;;1574057;74;1142;-60
2021/05/23 03:22:50;;;;;;;;;;;22.90;40.20;;;;;;1575483;75;1932;-60
2021/05/23 03:24:52;;;;;;;;;;;22.90;40.20;;;;;;1580657;74;757;-58
2021/05/23 03:26:54;;;;;;;;;;;22.90;40.20;;;;;;1582350;74;818;-59
2021/05/23 03:28:56;;;;;;;;;;;22.90;40.30;;;;;;1580764;74;712;-58
2021/05/23 03:30:58;;;;;;;;;;;22.90;40.20;;;;;;1566851;74;1145;-59
2021/05/23 03:32:59;;;;;;;;;;;22.90;40.30;;;;;;1575659;74;769;-59
2021/05/23 03:35:01;;;;;;;;;;;22.90;40.30;;;;;;1564727;75;709;-59
2021/05/23 03:37:03;;;;;;;;;;;22.90;40.20;;;;;;1581323;74;698;-59
2021/05/23 03:39:05;;;;;;;;;;;22.90;40.20;;;;;;1576934;74;725;-59
2021/05/23 03:41:07;;;;;;;;;;;22.90;40.30;;;;;;1582800;74;1083;-59
2021/05/23 03:43:09;;;;;;;;;;;22.80;40.40;;;;;;1576869;75;1945;-59
2021/05/23 03:45:11;;;;;;;;;;;22.80;40.20;;;;;;1578484;74;721;-58
2021/05/23 03:47:13;;;;;;;;;;;22.80;40.10;;;;;;1574121;74;761;-59
2021/05/23 03:49:15;;;;;;;;;;;23.00;40.20;;;;;;1570638;75;739;-59
2021/05/23 03:51:17;;;;;;;;;;;22.80;40.20;;;;;;1564929;75;1139;-58
2021/05/23 03:53:19;;;;;;;;;;;22.80;40.30;;;;;;1571326;75;857;-59
2021/05/23 03:55:21;;;;;;;;;;;22.90;40.30;;;;;;1566311;74;775;-59
2021/05/23 03:57:23;;;;;;;;;;;22.80;40.20;;;;;;1567050;75;918;-59
2021/05/23 03:59:25;;;;;;;;;;;22.80;40.30;;;;;;1560114;74;740;-59
2021/05/23 04:01:26;;;;;;;;;;;22.80;40.20;;;;;;1570665;74;1115;-59
2021/05/23 04:03:29;;;;;;;;;;;22.80;40.20;;;;;;1561508;74;1928;-59
2021/05/23 04:05:31;;;;;;;;;;;22.80;40.10;;;;;;1571696;75;740;-59
2021/05/23 04:07:33;;;;;;;;;;;22.80;40.00;;;;;;1575834;75;817;-60
2021/05/23 04:09:35;;;;;;;;;;;22.80;40.00;;;;;;1580731;74;770;-58
2021/05/23 04:11:38;;;;;;;;;;;22.80;40.00;;;;;;1581632;73;1090;-59
2021/05/23 04:13:41;;;;;;;;;;;22.80;39.90;;;;;;1580336;75;803;-59
2021/05/23 04:15:43;;;;;;;;;;;22.80;39.80;;;;;;1575783;75;792;-59
2021/05/23 04:17:45;;;;;;;;;;;22.80;39.90;;;;;;1566230;75;722;-59
2021/05/23 04:19:47;;;;;;;;;;;22.80;40.00;;;;;;1574371;75;756;-60
2021/05/23 04:21:49;;;;;;;;;;;22.80;39.60;;;;;;1565345;75;702;-59
2021/05/23 04:23:50;;;;;;;;;;;22.70;39.70;;;;;;1566148;75;1943;-59
2021/05/23 04:25:52;;;;;;;;;;;22.80;39.70;;;;;;1574556;74;681;-59
2021/05/23 04:27:54;;;;;;;;;;;22.70;39.70;;;;;;1571847;74;678;-59
2021/05/23 04:29:56;;;;;;;;;;;22.70;39.40;;;;;;1577304;74;1112;-59
2021/05/23 04:31:59;;;;;;;;;;;22.70;39.50;;;;;;1574088;74;800;-57
2021/05/23 04:34:01;;;;;;;;;;;22.80;39.70;;;;;;1567454;75;788;-59
2021/05/23 04:36:03;;;;;;;;;;;22.70;39.70;;;;;;1570071;75;799;-59
2021/05/23 04:38:05;;;;;;;;;;;22.80;39.90;;;;;;1575604;74;726;-59
2021/05/23 04:40:07;;;;;;;;;;;22.80;40.00;;;;;;1564109;74;1147;-59
2021/05/23 04:42:09;;;;;;;;;;;22.70;40.00;;;;;;1562085;75;796;-59
2021/05/23 04:44:11;;;;;;;;;;;22.70;40.20;;;;;;1567504;75;1938;-59
2021/05/23 04:46:13;;;;;;;;;;;22.80;40.20;;;;;;1563770;74;902;-59
2021/05/23 04:48:16;;;;;;;;;;;22.70;40.20;;;;;;1566556;75;748;-58
2021/05/23 04:50:18;;;;;;;;;;;22.70;40.20;;;;;;1571430;74;1144;-57
2021/05/23 04:52:20;;;;;;;;;;;22.70;40.30;;;;;;1566845;75;774;-57
2021/05/23 04:54:22;;;;;;;;;;;22.80;40.20;;;;;;1566632;75;704;-57
2021/05/23 04:56:24;;;;;;;;;;;22.80;40.20;;;;;;1563522;75;764;-59
2021/05/23 04:58:25;;;;;;;;;;;22.70;40.40;;;;;;1566513;75;834;-57
2021/05/23 05:00:27;;;;;;;;;;;22.80;40.30;;;;;;1566580;74;1118;-59
2021/05/23 05:02:29;;;;;;;;;;;22.80;40.40;;;;;;1562868;75;1946;-59
2021/05/23 05:04:31;;;;;;;;;;;22.80;40.50;;;;;;1567095;74;714;-59
2021/05/23 05:06:33;;;;;;;;;;;22.80;40.30;;;;;;1573257;74;865;-59
2021/05/23 05:08:35;;;;;;;;;;;22.80;40.20;;;;;;1563018;75;699;-58
2021/05/23 05:10:37;;;;;;;;;;;22.70;40.00;;;;;;1559258;75;1124;-58
2021/05/23 05:12:39;;;;;;;;;;;22.60;40.20;;;;;;1557088;75;719;-57
2021/05/23 05:14:41;;;;;;;;;;;22.80;40.30;;;;;;1560696;74;753;-58
2021/05/23 05:16:43;;;;;;;;;;;22.70;40.30;;;;;;1562090;75;763;-56
2021/05/23 05:18:45;;;;;;;;;;;22.70;40.30;;;;;;1561001;75;770;-58
2021/05/23 05:20:46;;;;;;;;;;;22.80;40.40;;;;;;1568530;74;1075;-57
2021/05/23 05:22:50;;;;;;;;;;;22.80;40.50;;;;;;1558643;75;1940;-58
2021/05/23 05:24:52;;;;;;;;;;;22.80;40.50;;;;;;1563405;74;2039;-58
2021/05/23 05:26:54;;;;;;;;;;;22.80;40.30;;;;;;1560964;74;725;-57
2021/05/23 05:28:56;;;;;;;;;;;22.80;40.40;;;;;;1561862;75;746;-56
2021/05/23 05:30:58;;;;;;;;;;;22.80;40.40;;;;;;1564009;74;1144;-57
2021/05/23 05:33:00;;;;;;;;;;;22.80;40.50;;;;;;1561239;75;809;-56
2021/05/23 05:35:02;;;;;;;;;;;22.70;40.40;;;;;;1569230;75;753;-58
2021/05/23 05:37:04;;;;;;;;;;;22.80;40.30;;;;;;1561055;75;745;-58
2021/05/23 05:39:06;;;;;;;;;;;22.80;40.30;;;;;;1560919;75;773;-58
2021/05/23 05:41:08;;;;;;;;;;;22.90;40.50;;;;;;1557243;74;1093;-58
2021/05/23 05:43:11;;;;;;;;;;;22.90;40.50;;;;;;1559781;75;1945;-58
2021/05/23 05:45:13;;;;;;;;;;;22.90;40.50;;;;;;1565906;74;740;-58
2021/05/23 05:47:15;;;;;;;;;;;22.90;40.40;;;;;;1561040;74;770;-57
2021/05/23 05:49:16;;;;;;;;;;;22.80;40.30;;;;;;1571806;75;784;-57
2021/05/23 05:51:18;;;;;;;;;;;22.80;40.20;;;;;;1559320;75;1128;-58
2021/05/23 05:53:20;;;;;;;;;;;22.70;40.30;;;;;;1574956;75;782;-58
2021/05/23 05:55:22;;;;;;;;;;;22.70;40.20;;;;;;1559453;75;803;-58
2021/05/23 05:57:24;;;;;;;;;;;22.80;40.20;;;;;;1572734;75;746;-59
2021/05/23 05:59:26;;;;;;;;;;;22.80;40.20;;;;;;1574626;75;768;-58
2021/05/23 06:01:28;;;;;;;;;;;22.80;40.20;;;;;;1571120;74;1127;-57
2021/05/23 06:03:30;;;;;;;;;;;22.80;40.40;;;;;;1580784;75;2148;-58
2021/05/23 06:05:32;;;;;;;;;;;22.80;40.30;;;;;;1572467;74;700;-57
2021/05/23 06:07:34;;;;;;;;;;;22.80;40.20;;;;;;1572975;75;791;-58
2021/05/23 06:09:35;;;;;;;;;;;22.80;40.20;;;;;;1574786;75;777;-59
2021/05/23 06:11:37;;;;;;;;;;;22.80;40.20;;;;;;1568954;74;1087;-59
2021/05/23 06:13:39;;;;;;;;;;;22.80;40.30;;;;;;1576857;75;716;-59
2021/05/23 06:15:41;;;;;;;;;;;22.80;40.40;;;;;;1571778;75;774;-58
2021/05/23 06:17:43;;;;;;;;;;;22.80;40.20;;;;;;1561084;74;691;-58
2021/05/23 06:19:45;;;;;;;;;;;22.80;40.50;;;;;;1563294;75;739;-58
2021/05/23 06:21:47;;;;;;;;;;;22.70;40.60;;;;;;1582205;73;1134;-57
2021/05/23 06:23:49;;;;;;;;;;;22.80;40.70;;;;;;1579003;75;1927;-57
2021/05/23 06:25:50;;;;;;;;;;;22.80;40.80;;;;;;1579203;75;729;-58
2021/05/23 06:27:52;;;;;;;;;;;22.90;41.00;;;;;;1576886;74;747;-59
2021/05/23 06:29:54;;;;;;;;;;;22.80;40.70;;;;;;1572127;75;1135;-59
2021/05/23 06:31:56;;;;;;;;;;;22.70;40.50;;;;;;1566836;75;800;-58
2021/05/23 06:33:58;;;;;;;;;;;22.70;40.20;;;;;;1567541;75;913;-59
2021/05/23 06:36:00;;;;;;;;;;;22.80;40.20;;;;;;1567187;74;778;-59
2021/05/23 06:38:02;;;;;;;;;;;22.80;40.00;;;;;;1559992;75;660;-58
2021/05/23 06:40:04;;;;;;;;;;;22.70;40.00;;;;;;1571537;75;1131;-58
2021/05/23 06:42:06;;;;;;;;;;;22.80;40.00;;;;;;1563416;75;766;-59
2021/05/23 06:44:08;;;;;;;;;;;22.80;40.00;;;;;;1566099;75;1929;-58
2021/05/23 06:46:10;;;;;;;;;;;22.70;39.70;;;;;;1563782;75;754;-59
2021/05/23 06:48:14;;;;;;;;;;;22.80;39.90;;;;;;1572667;75;704;-58
2021/05/23 06:50:15;;;;;;;;;;;22.70;39.90;;;;;;1560745;75;1707;-59
2021/05/23 06:52:17;;;;;;;;;;;22.70;39.90;;;;;;1575910;74;961;-59
2021/05/23 06:54:19;;;;;;;;;;;22.70;39.90;;;;;;1572269;74;794;-59
2021/05/23 06:56:21;;;;;;;;;;;22.80;40.20;;;;;;1564209;75;637;-58
2021/05/23 06:58:23;;;;;;;;;;;22.70;40.40;;;;;;1564313;75;767;-58
2021/05/23 07:00:25;;;;;;;;;;;22.90;40.70;;;;;;1564872;74;1153;-58
2021/05/23 07:02:26;;;;;;;;;;;22.80;40.60;;;;;;1574857;74;778;-59
2021/05/23 07:04:28;;;;;;;;;;;22.80;40.90;;;;;;1569938;75;1955;-59
2021/05/23 07:06:30;;;;;;;;;;;22.90;40.80;;;;;;1575324;74;725;-60
2021/05/23 07:08:32;;;;;;;;;;;22.90;41.20;;;;;;1583159;74;804;-59
2021/05/23 07:10:34;;;;;;;;;;;22.90;41.10;;;;;;1582102;74;1091;-59
2021/05/23 07:12:36;;;;;;;;;;;22.90;41.10;;;;;;1573669;75;774;-59
2021/05/23 07:14:38;;;;;;;;;;;22.90;41.30;;;;;;1568481;75;708;-58
2021/05/23 07:16:39;;;;;;;;;;;23.00;41.00;;;;;;1563885;75;721;-60
2021/05/23 07:18:41;;;;;;;;;;;22.90;40.70;;;;;;1568906;75;791;-60
2021/05/23 07:20:44;;;;;;;;;;;22.90;40.90;;;;;;1571518;74;1123;-59
2021/05/23 07:22:46;;;;;;;;;;;22.90;41.00;;;;;;1571744;75;741;-59
2021/05/23 07:24:48;;;;;;;;;;;22.90;41.50;;;;;;1562108;74;1943;-59
2021/05/23 07:26:50;;;;;;;;;;;23.00;41.20;;;;;;1565405;75;741;-59
2021/05/23 07:28:53;;;;;;;;;;;22.90;41.40;;;;;;1568318;74;756;-60
2021/05/23 07:30:55;;;;;;;;;;;23.00;41.30;;;;;;1570808;74;1127;-58
2021/05/23 07:32:57;;;;;;;;;;;23.00;41.70;;;;;;1576229;74;797;-58
2021/05/23 07:34:58;;;;;;;;;;;23.10;41.50;;;;;;1574164;75;774;-59
2021/05/23 07:37:00;;;;;;;;;;;23.20;41.40;;;;;;1567572;75;743;-58
2021/05/23 07:39:02;;;;;;;;;;;23.20;41.00;;;;;;1568804;75;701;-59
2021/05/23 07:41:04;;;;;;;;;;;23.20;41.10;;;;;;1564806;74;1183;-59
2021/05/23 07:43:06;;;;;;;;;;;23.20;40.70;;;;;;1560979;75;762;-59
2021/05/23 07:45:08;;;;;;;;;;;23.20;40.50;;;;;;1578789;75;1941;-58
2021/05/23 07:47:10;;;;;;;;;;;23.20;39.90;;;;;;1575828;75;608;-58
2021/05/23 07:49:12;;;;;;;;;;;23.20;40.00;;;;;;1582319;75;725;-58
2021/05/23 07:51:14;;;;;;;;;;;23.30;39.80;;;;;;1564630;74;1165;-58
2021/05/23 07:53:16;;;;;;;;;;;23.40;39.80;;;;;;1571080;75;730;-58
2021/05/23 07:55:18;;;;;;;;;;;23.30;39.50;;;;;;1573124;74;736;-59
2021/05/23 07:57:19;;;;;;;;;;;23.30;39.60;;;;;;1572625;75;809;-59
2021/05/23 07:59:21;;;;;;;;;;;23.40;39.50;;;;;;1565907;74;780;-58
2021/05/23 08:01:23;;;;;;;;;;;23.30;39.50;;;;;;1569661;74;1122;-58
2021/05/23 08:03:27;;;;;;;;;;;23.40;39.60;;;;;;1570767;75;831;-59
2021/05/23 08:05:28;;;;;;;;;;;23.30;39.60;;;;;;1572701;74;1907;-58
2021/05/23 08:07:30;;;;;;;;;;;23.30;39.60;;;;;;1578533;75;781;-58
2021/05/23 08:09:32;;;;;;;;;;;23.30;39.40;;;;;;1569786;75;810;-60
2021/05/23 08:11:34;;;;;;;;;;;23.20;39.60;;;;;;1571024;74;1102;-59
2021/05/23 08:13:36;;;;;;;;;;;23.20;39.80;;;;;;1564754;75;893;-60
2021/05/23 08:15:38;;;;;;;;;;;23.10;39.70;;;;;;1573768;75;781;-59
2021/05/23 08:17:41;;;;;;;;;;;23.10;39.60;;;;;;1578654;75;779;-59
2021/05/23 08:19:43;;;;;;;;;;;23.10;39.60;;;;;;1577918;74;776;-60
2021/05/23 08:21:45;;;;;;;;;;;23.00;39.50;;;;;;1575866;74;1139;-58
2021/05/23 08:23:47;;;;;;;;;;;23.00;39.40;;;;;;1575627;74;1946;-59
2021/05/23 08:25:48;;;;;;;;;;;22.90;39.50;;;;;;1571673;75;704;-60
2021/05/23 08:27:50;;;;;;;;;;;22.90;39.50;;;;;;1566349;75;611;-57
2021/05/23 08:29:53;;;;;;;;;;;22.90;39.60;;;;;;1567638;74;1125;-58
2021/05/23 08:31:55;;;;;;;;;;;22.80;39.50;;;;;;1556036;72;3015;-58
2021/05/23 08:33:57;;;;;;;;;;;22.80;39.50;;;;;;1548469;75;735;-56
2021/05/23 08:35:59;;;;;;;;;;;22.90;39.70;;;;;;1545231;75;739;-58
2021/05/23 08:38:01;;;;;;;;;;;22.80;39.60;;;;;;1547471;75;800;-59
2021/05/23 08:40:05;;;;;;;;;;;22.80;39.60;;;;;;1548148;75;1201;-58
2021/05/23 08:42:07;;;;;;;;;;;22.80;39.60;;;;;;1513188;76;931;-56
2021/05/23 08:44:09;;;;;;;;;;;22.80;39.60;;;;;;1524518;77;1926;-55
2021/05/23 08:46:11;;;;;;;;;;;22.80;39.70;;;;;;1514810;76;810;-59
2021/05/23 08:48:12;;;;;;;;;;;22.80;39.70;;;;;;1518927;76;746;-59
2021/05/23 08:50:18;;;;;;;;;;;22.80;39.70;;;;;;1509164;76;1193;-58
2021/05/23 08:52:20;;;;;;;;;;;22.80;39.70;;;;;;1502492;76;1085;-58
2021/05/23 08:54:22;;;;;;;;;;;22.70;39.80;;;;;;1524813;76;771;-59
2021/05/23 08:56:24;;;;;;;;;;;22.70;39.90;;;;;;1521431;76;744;-58
2021/05/23 08:58:26;;;;;;;;;;;22.70;39.90;;;;;;1505015;76;765;-55
2021/05/23 09:00:28;;;;;;;;;;;22.80;40.00;;;;;;1518518;76;1134;-55
2021/05/23 09:02:30;;;;;;;;;;;22.70;40.00;;;;;;1516522;76;907;-58
2021/05/23 09:04:32;;;;;;;;;;;22.70;40.00;;;;;;1517717;76;1922;-57
2021/05/23 09:06:34;;;;;;;;;;;22.70;40.00;;;;;;1520650;76;767;-59
2021/05/23 09:08:36;;;;;;;;;;;22.70;40.10;;;;;;1506006;76;709;-56
2021/05/23 09:10:40;;;;;;;;;;;22.80;40.10;;;;;;1510816;76;1149;-59
2021/05/23 09:12:43;;;;;;;;;;;22.80;40.20;;;;;;1517707;76;845;-59
2021/05/23 09:14:46;;;;;;;;;;;22.80;40.20;;;;;;1529633;76;1971;-55
2021/05/23 09:16:48;;;;;;;;;;;22.70;40.20;;;;;;1505588;76;681;-58
2021/05/23 09:18:50;;;;;;;;;;;22.70;40.20;;;;;;1511543;76;710;-59
2021/05/23 09:20:54;;;;;;;;;;;22.70;40.20;;;;;;1508281;76;1176;-59
2021/05/23 09:22:56;;;;;;;;;;;22.70;40.20;;;;;;1527238;76;1129;-59
2021/05/23 09:24:59;;;;;;;;;;;22.70;40.10;;;;;;1525479;76;1916;-58
2021/05/23 09:27:02;;;;;;;;;;;22.80;40.00;;;;;;1513043;76;932;-58
2021/05/23 09:29:08;;;;;;;;;;;22.70;40.00;;;;;;1500532;77;988;-59
2021/05/23 09:31:11;;;;;;;;;;;22.80;40.00;;;;;;1520456;76;1154;-59
2021/05/23 09:33:19;;;;;;;;;;;22.70;40.00;;;;;;1510906;76;577;-59
2021/05/23 09:35:23;;;;;;;;;;;22.80;40.00;;;;;;1502565;76;765;-59
2021/05/23 09:37:25;;;;;;;;;;;22.70;40.50;;;;;;1517662;76;776;-57
2021/05/23 09:39:36;;;;;;;;;;;22.60;40.60;;;;;;1511807;76;787;-58
2021/05/23 09:41:38;;;;;;;;;;;22.60;41.20;;;;;;1518071;76;1092;-58
2021/05/23 09:43:40;;;;;;;;;;;22.60;42.00;;;;;;1511537;76;798;-59
2021/05/23 09:45:46;;;;;;;;;;;22.50;42.30;;;;;;1522345;76;1949;-59
2021/05/23 09:47:56;;;;;;;;;;;22.60;41.50;;;;;;1509267;76;1839;-58
2021/05/23 09:49:58;;;;;;;;;;;22.60;41.20;;;;;;1515006;76;1106;-59
2021/05/23 09:52:00;;;;;;;;;;;22.60;41.20;;;;;;1510498;76;771;-58
2021/05/23 09:54:02;;;;;;;;;;;22.70;41.10;;;;;;1518400;76;786;-57
2021/05/23 09:56:05;;;;;;;;;;;22.60;41.20;;;;;;1528873;76;809;-59
2021/05/23 09:58:08;;;;;;;;;;;22.60;41.20;;;;;;1509921;76;723;-59
2021/05/23 10:00:11;;;;;;;;;;;22.60;40.50;;;;;;1494832;77;1227;-58
2021/05/23 10:02:13;;;;;;;;;;;22.70;40.60;;;;;;1523300;76;918;-58
2021/05/23 10:04:21;;;;;;;;;;;22.80;40.30;;;;;;1515387;76;1942;-58
2021/05/23 10:06:27;;;;;;;;;;;22.80;40.20;;;;;;1514059;76;678;-58
2021/05/23 10:08:29;;;;;;;;;;;22.80;40.10;;;;;;1524155;76;766;-58
2021/05/23 10:10:31;;;;;;;;;;;22.80;40.10;;;;;;1534778;75;1140;-58
2021/05/23 10:12:34;;;;;;;;;;;22.90;40.10;;;;;;1514068;76;761;-58
2021/05/23 10:14:37;;;;;;;;;;;22.90;40.00;;;;;;1529857;76;739;-58
2021/05/23 10:16:39;;;;;;;;;;;22.90;40.00;;;;;;1529146;76;742;-58
2021/05/23 10:18:40;;;;;;;;;;;22.80;39.80;;;;;;1525433;76;675;-59
2021/05/23 10:20:45;;;;;;;;;;;22.90;39.90;;;;;;1525516;76;1176;-58
2021/05/23 10:22:47;;;;;;;;;;;22.80;39.70;;;;;;1513979;76;930;-58
2021/05/23 10:24:50;;;;;;;;;;;22.80;39.70;;;;;;1532333;76;1953;-59
2021/05/23 10:26:53;;;;;;;;;;;22.80;39.70;;;;;;1533297;76;684;-58
2021/05/23 10:28:55;;;;;;;;;;;22.80;39.50;;;;;;1522869;76;1774;-58
2021/05/23 10:30:57;;;;;;;;;;;22.90;39.70;;;;;;1518541;76;1166;-58
2021/05/23 10:33:01;;;;;;;;;;;22.90;39.60;;;;;;1526008;76;748;-59
2021/05/23 10:35:14;;;;;;;;;;;22.90;39.50;;;;;;1515815;76;1848;-58
2021/05/23 10:37:20;;;;;;;;;;;22.90;39.40;;;;;;1516646;76;740;-59
2021/05/23 10:39:22;;;;;;;;;;;22.90;39.40;;;;;;1516369;76;1609;-59
2021/05/23 10:41:23;;;;;;;;;;;22.90;39.30;;;;;;1514560;76;1157;-58
2021/05/23 10:43:26;;;;;;;;;;;22.90;39.30;;;;;;1519450;76;751;-58
2021/05/23 10:45:32;;;;;;;;;;;22.90;39.20;;;;;;1521718;76;1936;-59
2021/05/23 10:47:36;;;;;;;;;;;22.90;39.20;;;;;;1530042;76;743;-58
2021/05/23 10:49:40;;;;;;;;;;;22.90;39.20;;;;;;1515526;76;791;-58
2021/05/23 10:51:43;;;;;;;;;;;22.90;39.20;;;;;;1524739;76;1968;-58
2021/05/23 10:53:45;;;;;;;;;;;22.90;39.20;;;;;;1520172;76;1861;-58
2021/05/23 10:55:48;;;;;;;;;;;22.90;39.10;;;;;;1530947;76;823;-59
2021/05/23 10:57:50;;;;;;;;;;;22.90;39.10;;;;;;1510488;76;815;-58
2021/05/23 11:00:01;;;;;;;;;;;22.90;39.00;;;;;;1515431;76;1150;-58
2021/05/23 11:02:03;;;;;;;;;;;22.90;38.90;;;;;;1529769;76;719;-59
2021/05/23 11:04:12;;;;;;;;;;;22.90;38.90;;;;;;1522660;76;839;-58
2021/05/23 11:06:15;;;;;;;;;;;22.90;38.90;;;;;;1527006;76;1916;-58
2021/05/23 11:08:17;;;;;;;;;;;22.90;38.90;;;;;;1516950;76;1879;-58
2021/05/23 11:10:21;;;;;;;;;;;22.90;38.90;;;;;;1522547;76;1145;-58
2021/05/23 11:12:22;;;;;;;;;;;22.90;38.80;;;;;;1527895;76;770;-59
2021/05/23 11:14:24;;;;;;;;;;;22.90;38.90;;;;;;1522811;76;741;-59
2021/05/23 11:16:26;;;;;;;;;;;22.90;38.80;;;;;;1525372;76;767;-58
2021/05/23 11:18:28;;;;;;;;;;;22.90;38.80;;;;;;1522759;76;719;-58
2021/05/23 11:20:30;;;;;;;;;;;22.90;38.80;;;;;;1518626;76;1154;-59
2021/05/23 11:22:32;;;;;;;;;;;22.90;38.60;;;;;;1520611;76;808;-58
2021/05/23 11:24:35;;;;;;;;;;;22.90;38.70;;;;;;1526272;76;828;-58
2021/05/23 11:26:37;;;;;;;;;;;22.90;38.60;;;;;;1515793;76;1998;-58
2021/05/23 11:28:39;;;;;;;;;;;22.90;38.60;;;;;;1526085;76;701;-59
2021/05/23 11:30:41;;;;;;;;;;;22.90;38.60;;;;;;1528479;76;1098;-59
2021/05/23 11:32:43;;;;;;;;;;;22.90;38.60;;;;;;1515299;76;831;-58
2021/05/23 11:34:45;;;;;;;;;;;22.90;38.60;;;;;;1523416;76;840;-58
2021/05/23 11:36:47;;;;;;;;;;;22.90;38.60;;;;;;1527246;76;794;-58
2021/05/23 11:38:49;;;;;;;;;;;22.90;38.50;;;;;;1515323;76;774;-58
2021/05/23 11:40:51;;;;;;;;;;;22.90;38.60;;;;;;1520136;76;1101;-58
2021/05/23 11:42:53;;;;;;;;;;;22.90;38.50;;;;;;1528787;76;772;-58
2021/05/23 11:44:55;;;;;;;;;;;22.90;38.50;;;;;;1529788;76;1953;-58
2021/05/23 11:46:57;;;;;;;;;;;22.90;38.50;;;;;;1530675;76;809;-58
2021/05/23 11:48:59;;;;;;;;;;;22.90;38.40;;;;;;1493413;77;1299;-58
2021/05/23 11:51:01;;;;;;;;;;;22.90;38.40;;;;;;1509604;76;1139;-58
2021/05/23 11:53:03;;;;;;;;;;;22.80;38.10;;;;;;1506659;76;945;-58
2021/05/23 11:55:05;;;;;;;;;;;22.80;38.10;;;;;;1518922;76;680;-59
2021/05/23 11:57:09;;;;;;;;;;;22.80;37.70;;;;;;1518042;76;709;-59
2021/05/23 11:59:11;;;;;;;;;;;22.80;37.80;;;;;;1528112;76;724;-59
2021/05/23 12:01:13;;;;;;;;;;;22.90;37.60;;;;;;1521418;76;1095;-58
2021/05/23 12:03:15;;;;;;;;;;;22.90;37.40;;;;;;1505606;76;742;-58
2021/05/23 12:05:17;;;;;;;;;;;22.90;37.40;;;;;;1511936;76;1936;-59
2021/05/23 12:07:19;;;;;;;;;;;22.80;37.20;;;;;;1528003;76;761;-58
2021/05/23 12:09:36;;;;;;;;;;;22.80;37.20;;;;;;1525306;76;781;-58